createdAt,value
2022-11-10T00:02:16.582Z,94824.81
2022-11-10T00:04:44.305Z,92095.03
2022-11-10T00:07:11.775Z,89034.13
2022-11-10T00:09:40.599Z,86989.09
2022-11-10T00:12:08.106Z,87653.38
2022-11-10T00:14:53.348Z,87301.00
2022-11-10T00:17:20.846Z,87644.50
2022-11-10T00:19:48.301Z,85617.53
2022-11-10T00:22:15.759Z,85269.22
2022-11-10T00:24:45.104Z,82882.53
2022-11-10T00:27:12.752Z,82884.63
2022-11-10T00:29:40.302Z,81873.38
2022-11-10T00:32:08.005Z,80864.28
2022-11-10T00:34:35.592Z,79833.59
2022-11-10T00:37:03.393Z,79830.25
2022-11-10T00:39:30.928Z,79151.28
2022-11-10T00:42:00.166Z,79809.38
2022-11-10T00:44:27.615Z,77792.41
2022-11-10T00:46:55.103Z,77796.38
2022-11-10T00:49:22.569Z,78809.53
2022-11-10T00:51:50.067Z,79471.63
2022-11-10T00:54:17.514Z,78800.22
2022-11-10T00:56:45.075Z,77789.81
2022-11-10T00:59:13.922Z,78477.09
2022-11-10T01:01:41.403Z,77785.84
2022-11-10T01:04:08.962Z,78442.66
2022-11-10T01:06:36.535Z,77759.59
2022-11-10T01:09:04.820Z,79108.53
2022-11-10T01:11:32.423Z,79103.19
2022-11-10T01:13:59.916Z,78064.16
2022-11-10T01:16:34.664Z,78394.94
2022-11-10T01:19:04.461Z,77385.44
2022-11-10T01:21:33.258Z,78387.66
2022-11-10T01:24:01.210Z,76012.34
2022-11-10T01:26:28.741Z,77023.34
2022-11-10T01:28:56.223Z,77709.69
2022-11-10T01:31:23.792Z,76345.03
2022-11-10T01:33:52.598Z,76345.03
2022-11-10T01:36:20.054Z,76003.34
2022-11-10T01:38:47.561Z,75671.34
2022-11-10T01:41:16.441Z,75338.00
2022-11-10T01:43:44.170Z,73330.25
2022-11-10T01:46:13.059Z,74002.03
2022-11-10T01:48:45.446Z,75012.91
2022-11-10T01:51:19.563Z,75349.44
2022-11-10T01:53:51.521Z,74998.31
2022-11-10T01:56:19.914Z,74991.34
2022-11-10T01:58:54.844Z,76353.41
2022-11-10T02:01:22.375Z,76341.16
2022-11-10T02:03:52.193Z,77357.97
2022-11-10T02:06:23.516Z,76343.09
2022-11-10T02:08:51.980Z,77348.84
2022-11-10T02:11:19.635Z,78351.25
2022-11-10T02:13:47.534Z,77683.41
2022-11-10T02:16:15.127Z,78361.84
2022-11-10T02:18:42.632Z,79379.03
2022-11-10T02:21:11.957Z,79700.91
2022-11-10T02:23:48.564Z,80382.97
2022-11-10T02:26:20.423Z,81046.75
2022-11-10T02:28:48.002Z,80714.19
2022-11-10T02:31:15.478Z,81046.75
2022-11-10T02:33:43.088Z,81733.84
2022-11-10T02:36:12.644Z,83396.50
2022-11-10T02:38:40.762Z,81024.84
2022-11-10T02:41:08.246Z,80697.84
2022-11-10T02:43:37.556Z,80373.47
2022-11-10T02:46:05.252Z,80034.81
2022-11-10T02:48:32.826Z,78719.72
2022-11-10T02:51:00.290Z,78387.66
2022-11-10T02:53:29.155Z,78056.88
2022-11-10T02:55:56.610Z,78721.69
2022-11-10T02:58:24.112Z,80389.78
2022-11-10T03:00:51.602Z,82087.25
2022-11-10T03:03:19.312Z,84073.47
2022-11-10T03:05:47.074Z,82372.56
2022-11-10T03:08:14.566Z,84737.69
2022-11-10T03:10:43.500Z,84702.59
2022-11-10T03:13:10.985Z,87058.91
2022-11-10T03:15:38.444Z,82663.78
2022-11-10T03:18:06.347Z,82996.03
2022-11-10T03:20:33.909Z,84000.38
2022-11-10T03:23:02.891Z,85377.94
2022-11-10T03:25:30.449Z,85691.41
2022-11-10T03:27:59.568Z,85019.78
2022-11-10T03:30:27.138Z,85019.78
2022-11-10T03:32:54.778Z,82630.97
2022-11-10T03:35:22.257Z,83656.88
2022-11-10T03:37:49.810Z,83685.13
2022-11-10T03:40:20.639Z,82670.06
2022-11-10T03:42:48.264Z,83338.78
2022-11-10T03:45:17.125Z,80967.38
2022-11-10T03:47:47.233Z,82312.72
2022-11-10T03:50:15.523Z,81634.50
2022-11-10T03:52:44.428Z,82640.75
2022-11-10T03:55:13.653Z,82628.16
2022-11-10T03:57:41.220Z,82642.13
2022-11-10T04:03:03.030Z,85642.19
2022-11-10T04:05:48.142Z,84626.06
2022-11-10T04:08:35.362Z,84277.00
2022-11-10T04:11:03.236Z,83956.38
2022-11-10T04:13:48.611Z,83640.63
2022-11-10T04:16:16.065Z,83632.13
2022-11-10T04:18:44.853Z,83617.28
2022-11-10T04:21:12.991Z,85291.44
2022-11-10T04:23:40.447Z,84639.66
2022-11-10T04:26:27.386Z,83276.16
2022-11-10T04:28:57.765Z,83931.56
2022-11-10T04:31:26.985Z,85269.78
2022-11-10T04:33:56.235Z,83591.88
2022-11-10T04:36:26.648Z,84605.34
2022-11-10T04:38:55.402Z,84225.00
2022-11-10T04:41:23.374Z,82233.47
2022-11-10T04:43:51.188Z,81902.97
2022-11-10T04:46:23.850Z,82899.97
2022-11-10T04:48:51.552Z,81561.41
2022-11-10T04:51:21.995Z,81557.97
2022-11-10T04:53:49.683Z,82228.63
2022-11-10T04:56:18.690Z,82227.94
2022-11-10T04:58:46.636Z,83236.00
2022-11-10T05:01:15.958Z,82562.53
2022-11-10T05:03:44.189Z,83234.59
2022-11-10T05:06:12.193Z,84242.78
2022-11-10T05:08:41.937Z,83570.66
2022-11-10T05:11:10.644Z,83574.88
2022-11-10T05:13:38.343Z,83906.72
2022-11-10T05:16:06.794Z,83240.25
2022-11-10T05:18:34.652Z,84594.59
2022-11-10T05:21:02.156Z,84937.94
2022-11-10T05:23:41.966Z,85261.16
2022-11-10T05:26:12.657Z,85607.44
2022-11-10T05:28:41.611Z,86615.34
2022-11-10T05:31:09.567Z,85265.47
2022-11-10T05:33:37.946Z,86952.31
2022-11-10T05:36:07.160Z,82264.06
2022-11-10T05:38:38.885Z,82612.81
2022-11-10T05:41:10.909Z,82953.94
2022-11-10T05:43:38.616Z,83281.06
2022-11-10T05:46:06.275Z,82956.03
2022-11-10T05:48:34.069Z,83629.31
2022-11-10T05:51:01.516Z,83625.06
2022-11-10T05:53:29.294Z,83300.75
2022-11-10T05:55:56.775Z,84647.53
2022-11-10T05:58:25.906Z,85310.19
2022-11-10T06:00:53.523Z,85984.34
2022-11-10T06:03:21.714Z,88004.22
2022-11-10T06:05:49.675Z,87998.28
2022-11-10T06:08:19.594Z,86632.94
2022-11-10T06:10:47.552Z,84278.41
2022-11-10T06:13:18.665Z,85630.59
2022-11-10T06:15:50.423Z,84952.31
2022-11-10T06:18:18.318Z,84607.50
2022-11-10T06:20:47.162Z,84274.13
2022-11-10T06:23:16.022Z,83944.31
2022-11-10T06:25:44.522Z,84285.53
2022-11-10T06:28:12.119Z,85302.97
2022-11-10T06:30:40.038Z,85313.06
2022-11-10T06:33:10.185Z,84641.78
2022-11-10T06:35:37.719Z,84658.97
2022-11-10T06:38:06.726Z,84319.72
2022-11-10T06:40:34.913Z,85327.47
2022-11-10T06:43:03.114Z,83990.44
2022-11-10T06:45:30.758Z,84674.72
2022-11-10T06:48:02.527Z,84003.94
2022-11-10T06:50:31.907Z,83333.84
2022-11-10T06:53:54.302Z,82677.06
2022-11-10T06:56:22.131Z,84030.16
2022-11-10T06:58:49.689Z,82361.44
2022-11-10T07:01:21.369Z,82379.50
2022-11-10T07:04:17.726Z,83075.97
2022-11-10T07:06:40.862Z,86142.75
2022-11-10T07:09:08.435Z,87527.00
2022-11-10T07:11:35.889Z,91282.72
2022-11-10T07:14:03.510Z,92992.88
2022-11-10T07:16:31.030Z,94703.31
2022-11-10T07:18:58.511Z,95398.91
2022-11-10T07:21:26.009Z,97805.97
2022-11-10T07:23:54.801Z,104334.38
2022-11-10T07:26:22.289Z,112248.31
2022-11-10T07:28:49.747Z,120494.59
2022-11-10T07:31:17.490Z,131551.09
2022-11-10T07:33:46.746Z,141922.59
2022-11-10T07:36:18.568Z,143304.41
2022-11-10T07:38:46.017Z,152708.38
2022-11-10T07:41:14.827Z,152714.81
2022-11-10T07:43:42.329Z,152731.56
2022-11-10T07:46:10.567Z,152717.38
2022-11-10T07:48:38.080Z,152747.03
2022-11-10T07:51:06.003Z,152772.78
2022-11-10T07:53:33.446Z,152770.22
2022-11-10T07:56:01.110Z,152798.56
2022-11-10T07:58:30.977Z,152847.50
2022-11-10T08:00:58.425Z,152857.84
2022-11-10T08:03:26.167Z,152855.28
2022-11-10T08:05:53.826Z,152881.03
2022-11-10T08:08:21.293Z,152901.69
2022-11-10T08:10:48.767Z,152918.47
2022-11-10T08:13:16.263Z,152914.59
2022-11-10T08:15:45.166Z,152930.06
2022-11-10T08:18:17.637Z,152942.94
2022-11-10T08:20:45.562Z,152964.88
2022-11-10T08:23:13.380Z,152966.19
2022-11-10T08:25:41.526Z,152971.31
2022-11-10T08:28:10.883Z,152989.38
2022-11-10T08:30:40.052Z,153012.56
2022-11-10T08:33:10.832Z,153028.03
2022-11-10T08:35:41.189Z,153024.16
2022-11-10T08:38:10.098Z,153047.41
2022-11-10T08:40:38.084Z,153066.72
2022-11-10T08:43:07.509Z,153073.19
2022-11-10T08:45:35.625Z,153082.22
2022-11-10T08:48:05.174Z,153092.50
2022-11-10T08:50:34.341Z,153084.81
2022-11-10T08:53:03.156Z,153099.00
2022-11-10T08:55:31.030Z,153105.41
2022-11-10T08:58:02.346Z,153131.19
2022-11-10T09:00:31.343Z,153123.47
2022-11-10T09:03:05.266Z,153144.09
2022-11-10T09:05:34.284Z,153227.97
2022-11-10T09:08:01.737Z,153271.91
2022-11-10T09:10:29.255Z,153277.06
2022-11-10T09:13:00.158Z,153301.59
2022-11-10T09:15:28.024Z,153327.38
2022-11-10T09:17:55.563Z,153333.81
2022-11-10T09:20:23.032Z,153384.19
2022-11-10T09:22:51.831Z,153410.00
2022-11-10T09:25:19.402Z,153406.13
2022-11-10T09:27:47.078Z,153435.81
2022-11-10T09:30:17.857Z,153389.31
2022-11-10T09:32:47.057Z,153367.41
2022-11-10T09:35:14.576Z,153335.13
2022-11-10T09:37:42.029Z,153293.81
2022-11-10T09:40:18.713Z,153262.88
2022-11-10T09:42:48.023Z,153246.03
2022-11-10T09:45:23.524Z,153212.47
2022-11-10T09:47:59.071Z,153208.63
2022-11-10T09:50:34.742Z,153216.34
2022-11-10T09:53:03.594Z,153268.00
2022-11-10T09:55:38.902Z,153296.41
2022-11-10T09:58:06.485Z,153314.50
2022-11-10T10:00:36.518Z,153331.28
2022-11-10T10:03:06.045Z,153415.13
2022-11-10T10:05:51.444Z,153429.34
2022-11-10T10:08:27.344Z,153424.22
2022-11-10T10:11:09.082Z,153431.94
2022-11-10T10:14:05.711Z,153410.00
2022-11-10T10:16:40.978Z,153420.31
2022-11-10T10:19:22.112Z,153415.13
2022-11-10T10:22:06.892Z,153446.13
2022-11-10T10:24:35.209Z,153497.78
2022-11-10T10:27:08.078Z,153514.56
2022-11-10T10:29:40.284Z,153505.56
2022-11-10T10:32:13.284Z,153495.19
2022-11-10T10:34:42.167Z,153505.56
2022-11-10T10:37:23.194Z,153415.13
2022-11-10T10:39:53.201Z,153433.22
2022-11-10T10:42:31.056Z,153425.50
2022-11-10T10:45:19.737Z,153501.66
2022-11-10T10:47:49.378Z,153554.59
2022-11-10T10:50:23.714Z,153546.88
2022-11-10T10:53:08.477Z,153575.28
2022-11-10T10:55:36.873Z,153606.31
2022-11-10T10:58:19.757Z,153657.97
2022-11-10T11:00:49.149Z,153598.56
2022-11-10T11:03:26.697Z,153624.41
2022-11-10T11:06:07.679Z,153678.66
2022-11-10T11:08:35.455Z,153663.16
2022-11-10T11:11:12.155Z,153598.56
2022-11-10T11:13:40.974Z,153614.09
2022-11-10T11:16:12.244Z,153615.34
2022-11-10T11:18:41.394Z,153676.06
2022-11-10T11:21:18.432Z,153694.19
2022-11-10T11:24:09.330Z,153629.53
2022-11-10T11:26:46.132Z,153606.31
2022-11-10T11:29:39.118Z,153610.19
2022-11-10T11:32:25.460Z,153590.78
2022-11-10T11:35:02.900Z,153612.78
2022-11-10T11:37:38.949Z,153660.56
2022-11-10T11:40:20.731Z,153704.50
2022-11-10T11:42:58.540Z,153732.94
2022-11-10T11:45:37.645Z,153738.06
2022-11-10T11:48:36.711Z,153740.66
2022-11-10T11:54:23.370Z,153771.69
2022-11-10T11:56:52.403Z,153842.78
2022-11-10T11:59:38.356Z,153841.47
2022-11-10T12:02:35.669Z,153766.50
2022-11-10T12:05:14.677Z,153683.81
2022-11-10T12:07:52.632Z,153676.06
2022-11-10T12:10:40.519Z,153619.22
2022-11-10T12:13:30.183Z,153652.81
2022-11-10T12:16:03.071Z,153709.63
2022-11-10T12:18:36.241Z,153713.53
2022-11-10T12:21:16.150Z,153677.38
2022-11-10T12:23:56.696Z,153725.16
2022-11-10T12:26:35.038Z,153754.88
2022-11-10T12:29:11.323Z,153846.63
2022-11-10T12:31:41.472Z,153818.19
2022-11-10T12:34:19.099Z,153785.91
2022-11-10T12:36:47.256Z,153732.94
2022-11-10T12:39:21.229Z,153757.47
2022-11-10T12:41:54.672Z,153735.53
2022-11-10T12:44:27.937Z,153736.78
2022-11-10T12:46:58.678Z,153713.53
2022-11-10T12:49:31.926Z,153698.00
2022-11-10T12:52:04.339Z,153696.72
2022-11-10T12:54:31.896Z,153650.25
2022-11-10T12:57:05.017Z,153624.41
2022-11-10T12:59:34.998Z,153624.41
2022-11-10T13:02:06.013Z,153629.53
2022-11-10T13:04:35.444Z,153663.16
2022-11-10T13:07:10.253Z,153704.50
2022-11-10T13:09:43.432Z,153736.78
2022-11-10T13:12:20.803Z,153778.13
2022-11-10T13:14:49.216Z,153807.84
2022-11-10T13:17:54.892Z,153782.00
2022-11-10T13:20:57.473Z,153800.13
2022-11-10T13:23:27.703Z,153757.47
2022-11-10T13:26:02.578Z,153775.56
2022-11-10T13:28:59.349Z,153707.09
2022-11-10T13:31:51.265Z,153652.81
2022-11-10T13:34:30.490Z,153619.22
2022-11-10T13:36:59.559Z,153607.59
2022-11-10T13:39:30.974Z,153607.59
2022-11-10T13:42:04.011Z,153605.00
2022-11-10T13:44:34.290Z,153612.78
2022-11-10T13:47:34.922Z,153632.13
2022-11-10T13:50:19.575Z,153639.91
2022-11-10T13:52:55.062Z,153629.53
2022-11-10T13:55:36.191Z,153619.22
2022-11-10T13:58:06.205Z,153602.41
2022-11-10T14:00:35.310Z,153593.38
2022-11-10T14:03:03.749Z,153608.91
2022-11-10T14:06:05.675Z,153608.91
2022-11-10T14:08:40.980Z,153594.69
2022-11-10T14:11:16.024Z,153608.91
2022-11-10T14:13:46.551Z,153602.41
2022-11-10T14:16:18.182Z,153608.91
2022-11-10T14:19:02.612Z,153606.31
2022-11-10T14:21:37.573Z,153616.63
2022-11-10T14:24:13.815Z,153598.56
2022-11-10T14:29:40.308Z,153557.19
2022-11-10T14:32:16.142Z,153572.75
2022-11-10T14:34:47.920Z,153580.47
2022-11-10T14:37:22.832Z,153572.75
2022-11-10T14:39:53.706Z,153574.03
2022-11-10T14:42:24.586Z,153510.69
2022-11-10T14:45:06.443Z,153500.38
2022-11-10T14:47:35.687Z,153462.94
2022-11-10T14:50:17.883Z,153456.44
2022-11-10T14:52:51.435Z,153422.91
2022-11-10T14:55:23.855Z,153389.31
2022-11-10T14:57:54.378Z,153362.22
2022-11-10T15:00:26.196Z,153327.38
2022-11-10T15:02:55.912Z,153327.38
2022-11-10T15:05:24.514Z,153300.28
2022-11-10T15:07:54.713Z,153244.75
2022-11-10T15:10:25.545Z,153234.44
2022-11-10T15:13:02.424Z,153224.06
2022-11-10T15:15:30.165Z,153220.25
2022-11-10T15:17:57.598Z,153189.25
2022-11-10T15:20:33.831Z,153151.88
2022-11-10T15:23:03.147Z,153185.38
2022-11-10T15:25:37.707Z,153184.09
2022-11-10T15:28:15.323Z,153187.97
2022-11-10T15:30:50.052Z,153176.38
2022-11-10T15:33:24.722Z,153158.28
2022-11-10T15:35:52.481Z,153128.66
2022-11-10T15:38:32.023Z,153102.81
2022-11-10T15:41:12.904Z,153100.28
2022-11-10T15:43:41.116Z,153077.03
2022-11-10T15:46:18.432Z,153109.28
2022-11-10T15:48:48.683Z,153061.59
2022-11-10T15:51:23.035Z,153033.22
2022-11-10T15:53:54.233Z,153038.34
2022-11-10T15:56:25.342Z,153009.97
2022-11-10T15:59:00.603Z,152976.50
2022-11-10T16:01:29.386Z,152955.84
2022-11-10T16:03:56.896Z,152918.47
2022-11-10T16:10:10.158Z,152942.94
2022-11-10T16:12:39.068Z,152890.06
2022-11-10T16:15:12.600Z,152896.50
2022-11-10T16:17:40.134Z,152862.97
2022-11-10T16:20:14.709Z,152852.69
2022-11-10T16:22:42.187Z,152868.16
2022-11-10T16:25:14.748Z,152841.09
2022-11-10T16:27:47.827Z,152850.09
2022-11-10T16:30:17.237Z,152865.56
2022-11-10T16:32:44.691Z,152857.84
2022-11-10T16:35:13.710Z,152842.38
2022-11-10T16:37:43.442Z,152864.28
2022-11-10T16:40:16.553Z,152875.88
2022-11-10T16:42:44.861Z,152839.78
2022-11-10T16:45:18.576Z,152932.63
2022-11-10T16:47:49.422Z,153025.47
2022-11-10T16:50:33.387Z,153043.53
2022-11-10T16:53:02.975Z,153048.66
2022-11-10T16:55:31.007Z,153046.13
2022-11-10T16:57:58.512Z,153064.13
2022-11-10T17:00:29.538Z,153100.28
2022-11-10T17:03:02.500Z,153061.59
2022-11-10T17:05:31.408Z,153049.94
2022-11-10T17:07:59.943Z,153070.63
2022-11-10T17:10:29.408Z,153064.13
2022-11-10T17:12:59.081Z,153051.25
2022-11-10T17:15:27.975Z,153077.03
2022-11-10T17:17:58.054Z,153093.81
2022-11-10T17:20:34.249Z,152994.50
2022-11-10T17:23:02.693Z,153030.63
2022-11-10T17:25:33.939Z,153011.28
2022-11-10T17:28:01.782Z,152973.91
2022-11-10T17:30:30.658Z,152968.72
2022-11-10T17:33:04.613Z,152926.22
2022-11-10T17:35:40.277Z,152870.75
2022-11-10T17:38:12.625Z,152942.94
2022-11-10T17:40:42.287Z,152868.16
2022-11-10T17:43:11.630Z,152881.03
2022-11-10T17:45:41.482Z,152866.88
2022-11-10T17:48:09.303Z,152816.63
2022-11-10T17:50:38.988Z,152859.16
2022-11-10T17:53:16.076Z,152873.28
2022-11-10T17:55:43.641Z,152872.03
2022-11-10T17:58:11.401Z,152881.03
2022-11-10T18:00:39.047Z,152795.97
2022-11-10T18:03:08.632Z,152795.97
2022-11-10T18:05:36.578Z,152821.75
2022-11-10T18:08:04.143Z,152750.91
2022-11-10T18:10:31.577Z,152781.81
2022-11-10T18:12:59.033Z,152771.50
2022-11-10T18:15:26.564Z,152801.16
2022-11-10T18:20:47.226Z,152708.38
2022-11-10T18:23:14.727Z,152730.28
2022-11-10T18:25:43.329Z,152682.63
2022-11-10T18:28:14.745Z,152667.16
2022-11-10T18:30:42.888Z,152489.41
2022-11-10T18:33:11.555Z,152507.50
2022-11-10T18:35:40.447Z,152606.63
2022-11-10T18:38:12.055Z,152560.28
2022-11-10T18:40:39.689Z,152422.47
2022-11-10T18:43:07.858Z,152520.38
2022-11-10T18:45:36.744Z,152574.44
2022-11-10T18:48:05.258Z,152510.03
2022-11-10T18:50:32.808Z,152471.38
2022-11-10T18:53:00.436Z,152522.97
2022-11-10T18:55:29.257Z,152498.47
2022-11-10T18:57:56.818Z,152486.81
2022-11-10T19:00:24.744Z,152435.34
2022-11-10T19:02:52.208Z,152407.03
2022-11-10T19:05:19.670Z,152471.38
2022-11-10T19:07:47.113Z,152395.47
2022-11-10T19:10:14.592Z,152455.91
2022-11-10T19:12:43.436Z,152378.72
2022-11-10T19:15:11.018Z,152373.59
2022-11-10T19:17:38.775Z,152421.19
2022-11-10T19:20:07.341Z,152435.34
2022-11-10T19:22:34.983Z,152476.53
2022-11-10T19:25:09.687Z,152482.94
2022-11-10T19:27:37.156Z,152437.94
2022-11-10T19:30:07.140Z,152378.72
2022-11-10T19:32:34.832Z,152421.19
2022-11-10T19:35:03.718Z,152422.47
2022-11-10T19:37:34.857Z,152540.94
2022-11-10T19:40:02.683Z,152423.78
2022-11-10T19:42:30.657Z,152471.38
2022-11-10T19:44:58.782Z,152479.13
2022-11-10T19:47:27.607Z,152425.06
2022-11-10T19:49:55.291Z,152412.19
2022-11-10T19:52:26.352Z,152427.66
2022-11-10T19:54:53.803Z,152445.63
2022-11-10T19:57:26.623Z,152365.84
2022-11-10T19:59:54.079Z,152368.44
2022-11-10T20:02:23.490Z,152458.50
2022-11-10T20:05:09.749Z,152399.34
2022-11-10T20:07:55.248Z,152359.44
2022-11-10T20:10:22.766Z,152342.69
2022-11-10T20:12:50.631Z,152365.84
2022-11-10T20:15:18.112Z,152400.63
2022-11-10T20:17:45.589Z,152364.56
2022-11-10T20:20:15.160Z,152255.19
2022-11-10T20:22:42.629Z,152328.53
2022-11-10T20:25:10.160Z,152329.84
2022-11-10T20:27:39.607Z,152262.94
2022-11-10T20:30:08.199Z,152264.22
2022-11-10T20:32:35.651Z,152296.34
2022-11-10T20:35:03.250Z,152325.97
2022-11-10T20:37:33.872Z,152364.56
2022-11-10T20:40:02.530Z,152306.69
2022-11-10T20:42:30.162Z,152298.94
2022-11-10T20:44:57.671Z,152247.50
2022-11-10T20:47:26.000Z,152162.59
2022-11-10T20:49:54.354Z,152188.31
2022-11-10T20:52:22.097Z,152178.03
2022-11-10T20:54:51.922Z,152185.78
2022-11-10T20:57:19.636Z,152142.03
2022-11-10T20:59:47.342Z,152175.44
2022-11-10T21:02:14.852Z,152139.47
2022-11-10T21:04:43.361Z,152100.88
2022-11-10T21:07:10.992Z,152013.41
2022-11-10T21:09:38.510Z,152075.19
2022-11-10T21:12:25.427Z,152063.63
2022-11-10T21:14:52.880Z,152062.31
2022-11-10T21:17:20.335Z,152057.16
2022-11-10T21:19:48.456Z,152044.31
2022-11-10T21:22:15.916Z,152008.28
2022-11-10T21:24:43.429Z,152052.06
2022-11-10T21:27:12.645Z,152090.63
2022-11-10T21:29:42.154Z,152082.88
2022-11-10T21:32:09.611Z,152039.16
2022-11-10T21:34:37.074Z,152048.19
2022-11-10T21:37:04.838Z,152023.72
2022-11-10T21:39:32.396Z,152035.31
2022-11-10T21:41:59.892Z,152015.97
2022-11-10T21:44:28.688Z,152059.75
2022-11-10T21:46:56.144Z,152070.03
2022-11-10T21:49:23.791Z,152018.56
2022-11-10T21:51:51.280Z,152036.63
2022-11-10T21:54:22.522Z,151986.41
2022-11-10T21:56:50.173Z,151995.44
2022-11-10T21:59:19.056Z,151969.75
2022-11-10T22:01:47.900Z,151972.25
2022-11-10T22:04:15.447Z,151987.69
2022-11-10T22:07:00.521Z,152008.28
2022-11-10T22:09:45.779Z,151990.28
2022-11-10T22:12:31.511Z,151973.56
2022-11-10T22:15:16.835Z,151972.25
2022-11-10T22:18:03.417Z,151937.59
2022-11-10T22:20:30.841Z,151947.84
2022-11-10T22:22:58.463Z,151950.44
2022-11-10T22:25:25.938Z,151919.59
2022-11-10T22:27:53.409Z,151928.59
2022-11-10T22:30:21.016Z,151940.16
2022-11-10T22:32:49.795Z,151969.75
2022-11-10T22:35:31.208Z,151913.19
2022-11-10T22:38:04.159Z,151927.31
2022-11-10T22:40:49.181Z,151855.34
2022-11-10T22:43:34.655Z,151878.47
2022-11-10T22:46:02.435Z,151891.34
2022-11-10T22:48:33.619Z,151891.34
2022-11-10T22:51:01.269Z,151870.78
2022-11-10T22:53:28.972Z,151833.53
2022-11-10T22:56:00.212Z,151861.81
2022-11-10T22:58:27.810Z,151855.34
2022-11-10T23:00:55.243Z,151883.63
2022-11-10T23:03:23.033Z,151833.53
2022-11-10T23:05:56.465Z,151812.94
2022-11-10T23:08:24.181Z,151848.94
2022-11-10T23:10:58.391Z,151818.09
2022-11-10T23:13:25.937Z,151823.25
2022-11-10T23:15:56.604Z,151848.94
2022-11-10T23:18:24.382Z,151866.91
2022-11-10T23:20:58.329Z,151866.91
2022-11-10T23:23:26.105Z,151866.91
2022-11-10T23:26:01.516Z,151784.69
2022-11-10T23:28:30.261Z,151800.09
2022-11-10T23:31:04.015Z,151783.44
2022-11-10T23:33:33.060Z,151823.25
2022-11-10T23:36:03.046Z,151797.53
2022-11-10T23:38:31.578Z,151766.75
2022-11-10T23:41:00.627Z,151741.06
2022-11-10T23:43:28.774Z,151761.59
2022-11-10T23:46:12.361Z,151746.16
2022-11-10T23:48:40.733Z,151422.66
2022-11-10T23:51:11.976Z,151766.75
2022-11-10T23:53:43.274Z,151697.38
2022-11-10T23:56:12.951Z,151714.09
2022-11-10T23:58:40.533Z,151689.69
